createdAt,value
2023-04-23T00:00:19.029Z,12.10
2023-04-23T00:01:59.651Z,12.10
2023-04-23T00:03:34.394Z,12.10
2023-04-23T00:05:10.189Z,12.00
2023-04-23T00:06:44.644Z,12.00
2023-04-23T00:08:19.317Z,12.00
2023-04-23T00:09:58.480Z,12.00
2023-04-23T00:11:32.491Z,11.90
2023-04-23T00:13:05.324Z,11.90
2023-04-23T00:14:39.097Z,11.90
2023-04-23T00:16:14.482Z,11.90
2023-04-23T00:17:49.946Z,11.80
2023-04-23T00:19:23.174Z,11.80
2023-04-23T00:20:57.508Z,11.80
2023-04-23T00:22:30.788Z,11.80
2023-04-23T00:24:04.262Z,11.80
2023-04-23T00:25:37.471Z,11.80
2023-04-23T00:27:10.743Z,11.80
2023-04-23T00:28:43.901Z,11.70
2023-04-23T00:30:18.741Z,11.70
2023-04-23T00:31:52.172Z,11.70
2023-04-23T00:33:26.899Z,11.70
2023-04-23T00:35:00.130Z,11.70
2023-04-23T00:36:38.599Z,11.70
2023-04-23T00:38:11.811Z,11.70
2023-04-23T00:39:45.533Z,11.70
2023-04-23T00:41:20.252Z,11.70
2023-04-23T00:42:54.632Z,11.60
2023-04-23T00:44:28.164Z,11.60
2023-04-23T00:46:01.547Z,11.60
2023-04-23T00:47:34.709Z,11.60
2023-04-23T00:49:09.712Z,11.60
2023-04-23T00:50:43.457Z,11.60
2023-04-23T00:52:16.220Z,11.60
2023-04-23T00:53:50.000Z,11.50
2023-04-23T00:55:23.538Z,11.50
2023-04-23T00:56:58.476Z,11.50
2023-04-23T00:58:34.285Z,11.50
2023-04-23T01:00:15.614Z,11.50
2023-04-23T01:01:48.348Z,11.50
2023-04-23T01:03:22.990Z,11.40
2023-04-23T01:04:59.408Z,11.40
2023-04-23T01:06:33.055Z,11.40
2023-04-23T01:08:07.114Z,11.40
2023-04-23T01:09:39.993Z,11.40
2023-04-23T01:11:16.540Z,11.30
2023-04-23T01:12:50.217Z,11.30
2023-04-23T01:14:22.569Z,11.30
2023-04-23T01:15:56.189Z,11.30
2023-04-23T01:17:30.941Z,11.30
2023-04-23T01:19:04.878Z,11.20
2023-04-23T01:20:39.778Z,11.20
2023-04-23T01:22:15.511Z,11.20
2023-04-23T01:23:48.858Z,11.20
2023-04-23T01:25:22.304Z,11.10
2023-04-23T01:26:54.810Z,11.10
2023-04-23T01:28:28.474Z,11.10
2023-04-23T01:30:04.664Z,11.10
2023-04-23T01:31:38.493Z,11.10
2023-04-23T01:33:11.437Z,11.00
2023-04-23T01:34:47.785Z,11.10
2023-04-23T01:36:23.106Z,11.00
2023-04-23T01:38:04.082Z,11.00
2023-04-23T01:39:37.269Z,11.00
2023-04-23T01:41:10.534Z,11.00
2023-04-23T01:42:44.099Z,10.90
2023-04-23T01:44:16.724Z,10.90
2023-04-23T01:45:50.074Z,10.90
2023-04-23T01:47:22.704Z,10.90
2023-04-23T01:48:56.052Z,10.90
2023-04-23T01:50:29.930Z,10.90
2023-04-23T01:52:04.101Z,10.90
2023-04-23T01:53:37.684Z,10.80
2023-04-23T01:55:11.289Z,10.80
2023-04-23T01:56:44.580Z,10.80
2023-04-23T01:58:16.854Z,10.80
2023-04-23T01:59:50.006Z,10.80
2023-04-23T02:01:23.376Z,10.70
2023-04-23T02:02:56.766Z,10.70
2023-04-23T02:04:31.496Z,10.70
2023-04-23T02:06:05.433Z,10.70
2023-04-23T02:07:38.113Z,10.70
2023-04-23T02:09:12.839Z,10.70
2023-04-23T02:10:46.153Z,10.70
2023-04-23T02:12:19.496Z,10.60
2023-04-23T02:13:52.657Z,10.60
2023-04-23T02:15:26.657Z,10.60
2023-04-23T02:16:59.827Z,10.60
2023-04-23T02:18:31.980Z,10.50
2023-04-23T02:20:09.601Z,10.50
2023-04-23T02:21:42.944Z,10.50
2023-04-23T02:23:15.453Z,10.50
2023-04-23T02:24:50.855Z,10.50
2023-04-23T02:26:25.021Z,10.40
2023-04-23T02:27:59.710Z,10.40
2023-04-23T02:29:31.911Z,10.40
2023-04-23T02:31:06.539Z,10.40
2023-04-23T02:32:39.964Z,10.40
2023-04-23T02:34:13.147Z,10.40
2023-04-23T02:35:46.666Z,10.30
2023-04-23T02:37:19.909Z,10.30
2023-04-23T02:38:53.083Z,10.30
2023-04-23T02:40:26.617Z,10.30
2023-04-23T02:41:59.990Z,10.20
2023-04-23T02:43:34.358Z,10.20
2023-04-23T02:45:09.286Z,10.20
2023-04-23T02:46:42.389Z,10.20
2023-04-23T02:48:18.933Z,10.20
2023-04-23T02:49:52.148Z,10.20
2023-04-23T02:51:26.005Z,10.10
2023-04-23T02:52:58.381Z,10.10
2023-04-23T02:54:32.580Z,10.10
2023-04-23T02:56:08.143Z,10.10
2023-04-23T02:57:41.737Z,10.00
2023-04-23T02:59:15.041Z,10.00
2023-04-23T03:00:47.352Z,10.10
2023-04-23T03:02:20.694Z,10.00
2023-04-23T03:03:54.842Z,10.00
2023-04-23T03:05:28.322Z,9.90
2023-04-23T03:07:01.474Z,9.90
2023-04-23T03:08:35.183Z,9.90
2023-04-23T03:10:09.706Z,9.90
2023-04-23T03:11:44.351Z,9.90
2023-04-23T03:13:19.562Z,9.80
2023-04-23T03:14:52.753Z,9.80
2023-04-23T03:16:31.262Z,9.80
2023-04-23T03:18:06.028Z,9.80
2023-04-23T03:19:38.172Z,9.80
2023-04-23T03:21:12.020Z,9.70
2023-04-23T03:22:45.826Z,9.70
2023-04-23T03:24:18.648Z,9.70
2023-04-23T03:25:51.850Z,9.60
2023-04-23T03:27:26.078Z,9.60
2023-04-23T03:28:59.985Z,9.60
2023-04-23T03:30:34.135Z,9.50
2023-04-23T03:32:07.662Z,9.60
2023-04-23T03:33:40.876Z,9.50
2023-04-23T03:35:14.150Z,9.50
2023-04-23T03:36:51.338Z,9.50
2023-04-23T03:38:24.613Z,9.50
2023-04-23T03:39:59.327Z,9.50
2023-04-23T03:41:31.843Z,9.40
2023-04-23T03:43:06.450Z,9.40
2023-04-23T03:44:58.066Z,9.40
2023-04-23T03:46:32.831Z,9.30
2023-04-23T03:48:05.477Z,9.40
2023-04-23T03:49:40.214Z,9.30
2023-04-23T03:51:13.908Z,9.30
2023-04-23T03:52:53.247Z,9.20
2023-04-23T03:54:46.418Z,9.30
2023-04-23T03:56:24.592Z,9.20
2023-04-23T03:58:13.725Z,9.20
2023-04-23T03:59:50.639Z,9.20
2023-04-23T04:01:23.920Z,9.10
2023-04-23T04:02:57.237Z,9.10
2023-04-23T04:04:33.912Z,9.10
2023-04-23T04:06:08.053Z,9.10
2023-04-23T04:07:41.043Z,9.00
2023-04-23T04:09:14.188Z,9.00
2023-04-23T04:10:47.755Z,9.00
2023-04-23T04:12:20.946Z,9.00
2023-04-23T04:13:55.390Z,9.00
2023-04-23T04:15:28.555Z,9.00
2023-04-23T04:17:00.982Z,8.90
2023-04-23T04:18:34.123Z,8.90
2023-04-23T04:20:10.276Z,8.90
2023-04-23T04:21:43.477Z,8.90
2023-04-23T04:23:16.590Z,8.90
2023-04-23T04:24:51.965Z,8.80
2023-04-23T04:26:25.268Z,8.80
2023-04-23T04:27:58.436Z,8.80
2023-04-23T04:29:33.406Z,8.80
2023-04-23T04:31:08.510Z,8.80
2023-04-23T04:32:42.094Z,8.80
2023-04-23T04:34:15.527Z,8.70
2023-04-23T04:35:48.909Z,8.80
2023-04-23T04:37:22.190Z,8.70
2023-04-23T04:38:58.440Z,8.70
2023-04-23T04:40:31.568Z,8.70
2023-04-23T04:42:07.141Z,8.70
2023-04-23T04:43:40.290Z,8.70
2023-04-23T04:45:14.855Z,8.60
2023-04-23T04:46:48.191Z,8.60
2023-04-23T04:48:21.565Z,8.60
2023-04-23T04:49:57.488Z,8.60
2023-04-23T04:51:30.723Z,8.60
2023-04-23T04:53:03.164Z,8.60
2023-04-23T04:54:36.304Z,8.60
2023-04-23T04:56:10.045Z,8.60
2023-04-23T04:57:43.294Z,8.50
2023-04-23T04:59:15.474Z,8.50
2023-04-23T05:00:51.792Z,8.50
2023-04-23T05:02:26.516Z,8.50
2023-04-23T05:04:01.185Z,8.50
2023-04-23T05:05:35.205Z,8.50
2023-04-23T05:07:08.611Z,8.50
2023-04-23T05:08:42.705Z,8.50
2023-04-23T05:10:16.640Z,8.40
2023-04-23T05:11:50.072Z,8.50
2023-04-23T05:13:23.597Z,8.40
2023-04-23T05:14:55.694Z,8.40
2023-04-23T05:16:30.977Z,8.40
2023-04-23T05:18:07.803Z,8.40
2023-04-23T05:19:42.143Z,8.40
2023-04-23T05:21:15.993Z,8.30
2023-04-23T05:22:49.707Z,8.30
2023-04-23T05:24:22.846Z,8.30
2023-04-23T05:25:57.073Z,8.30
2023-04-23T05:27:30.405Z,8.30
2023-04-23T05:29:04.097Z,8.30
2023-04-23T05:30:37.372Z,8.20
2023-04-23T05:32:27.183Z,8.20
2023-04-23T05:34:00.275Z,8.20
2023-04-23T05:35:33.440Z,8.20
2023-04-23T05:37:06.840Z,8.20
2023-04-23T05:38:40.307Z,8.20
2023-04-23T05:40:13.715Z,8.20
2023-04-23T05:41:46.900Z,8.20
2023-04-23T05:43:20.127Z,8.10
2023-04-23T05:44:53.401Z,8.20
2023-04-23T05:46:27.278Z,8.20
2023-04-23T05:48:01.821Z,8.20
2023-04-23T05:49:35.036Z,8.10
2023-04-23T05:51:08.709Z,8.20
2023-04-23T05:52:40.881Z,8.20
2023-04-23T05:54:14.108Z,8.20
2023-04-23T05:55:47.260Z,8.20
2023-04-23T05:57:20.444Z,8.20
2023-04-23T05:58:54.366Z,8.20
2023-04-23T06:00:27.693Z,8.20
2023-04-23T06:02:01.101Z,8.30
2023-04-23T06:03:35.128Z,8.30
2023-04-23T06:05:09.644Z,8.40
2023-04-23T06:06:44.076Z,8.40
2023-04-23T06:08:17.402Z,8.50
2023-04-23T06:09:50.607Z,8.50
2023-04-23T06:11:24.239Z,8.60
2023-04-23T06:12:57.697Z,8.60
2023-04-23T06:14:30.813Z,8.70
2023-04-23T06:16:04.268Z,8.70
2023-04-23T06:17:37.989Z,8.80
2023-04-23T06:19:12.729Z,8.80
2023-04-23T06:20:45.948Z,8.90
2023-04-23T06:22:19.182Z,9.00
2023-04-23T06:23:52.320Z,9.00
2023-04-23T06:25:25.741Z,9.10
2023-04-23T06:26:58.884Z,9.10
2023-04-23T06:28:33.509Z,9.20
2023-04-23T06:30:42.007Z,9.20
2023-04-23T06:32:17.220Z,9.40
2023-04-23T06:33:51.581Z,9.40
2023-04-23T06:35:26.119Z,9.50
2023-04-23T06:37:00.144Z,9.50
2023-04-23T06:38:33.470Z,9.60
2023-04-23T06:40:08.012Z,9.70
2023-04-23T06:41:41.307Z,9.70
2023-04-23T06:43:26.924Z,9.80
2023-04-23T06:45:25.977Z,9.90
2023-04-23T06:46:59.275Z,10.00
2023-04-23T06:48:33.610Z,10.00
2023-04-23T06:50:09.041Z,10.10
2023-04-23T06:51:42.685Z,10.20
2023-04-23T06:53:15.955Z,10.20
2023-04-23T06:54:49.176Z,10.30
2023-04-23T06:56:22.681Z,10.40
2023-04-23T06:57:56.007Z,10.40
2023-04-23T06:59:29.576Z,10.60
2023-04-23T07:01:05.049Z,10.60
2023-04-23T07:02:40.461Z,10.70
2023-04-23T07:04:12.901Z,10.80
2023-04-23T07:05:46.081Z,10.90
2023-04-23T07:07:20.582Z,11.00
2023-04-23T07:08:53.660Z,11.00
2023-04-23T07:10:26.847Z,11.20
2023-04-23T07:11:59.965Z,11.20
2023-04-23T07:13:32.187Z,11.30
2023-04-23T07:15:07.531Z,11.40
2023-04-23T07:16:40.945Z,11.40
2023-04-23T07:18:14.408Z,11.60
2023-04-23T07:19:47.950Z,11.70
2023-04-23T07:21:21.390Z,11.70
2023-04-23T07:22:55.245Z,11.80
2023-04-23T07:24:28.335Z,11.90
2023-04-23T07:26:00.541Z,11.90
2023-04-23T07:27:33.666Z,11.90
2023-04-23T07:29:07.857Z,12.00
2023-04-23T07:30:41.288Z,12.00
2023-04-23T07:32:14.506Z,12.00
2023-04-23T07:33:47.617Z,12.10
2023-04-23T07:35:20.935Z,12.10
2023-04-23T07:36:54.052Z,12.20
2023-04-23T07:38:28.609Z,12.20
2023-04-23T07:40:02.263Z,12.30
2023-04-23T07:41:35.814Z,12.30
2023-04-23T07:43:09.004Z,12.40
2023-04-23T07:44:42.155Z,12.40
2023-04-23T07:46:15.375Z,12.50
2023-04-23T07:47:51.374Z,12.50
2023-04-23T07:49:25.445Z,12.60
2023-04-23T07:50:58.617Z,12.60
2023-04-23T07:52:31.819Z,12.70
2023-04-23T07:54:07.021Z,12.80
2023-04-23T07:55:40.419Z,12.80
2023-04-23T07:57:13.728Z,12.80
2023-04-23T07:58:46.830Z,12.90
2023-04-23T08:00:20.380Z,12.90
2023-04-23T08:01:53.590Z,13.00
2023-04-23T08:03:27.261Z,13.10
2023-04-23T08:05:01.124Z,13.10
2023-04-23T08:06:35.508Z,13.20
2023-04-23T08:08:09.166Z,13.20
2023-04-23T08:09:43.939Z,13.30
2023-04-23T08:11:17.563Z,13.30
2023-04-23T08:12:50.824Z,13.40
2023-04-23T08:14:24.048Z,13.40
2023-04-23T08:15:57.200Z,13.50
2023-04-23T08:17:30.631Z,13.50
2023-04-23T08:19:06.170Z,13.60
2023-04-23T08:20:40.950Z,13.70
2023-04-23T08:22:16.250Z,13.80
2023-04-23T08:23:49.377Z,13.80
2023-04-23T08:25:24.238Z,13.90
2023-04-23T08:26:57.470Z,13.90
2023-04-23T08:28:30.923Z,14.00
2023-04-23T08:30:04.492Z,14.00
2023-04-23T08:31:37.947Z,14.10
2023-04-23T08:33:11.177Z,14.20
2023-04-23T08:34:44.394Z,14.20
2023-04-23T08:36:17.518Z,14.20
2023-04-23T08:37:50.699Z,14.30
2023-04-23T08:39:23.839Z,14.30
2023-04-23T08:41:02.158Z,14.40
2023-04-23T08:42:44.566Z,14.40
2023-04-23T08:44:20.644Z,14.50
2023-04-23T08:45:55.419Z,14.60
2023-04-23T08:47:30.891Z,14.60
2023-04-23T08:49:06.085Z,14.70
2023-04-23T08:50:44.142Z,14.70
2023-04-23T08:52:24.428Z,14.80
2023-04-23T08:54:00.653Z,14.80
2023-04-23T08:55:36.370Z,14.90
2023-04-23T08:57:11.991Z,14.90
2023-04-23T08:58:48.368Z,15.00
2023-04-23T09:00:27.802Z,15.10
2023-04-23T09:02:07.760Z,15.20
2023-04-23T09:03:43.503Z,15.20
2023-04-23T09:05:17.436Z,15.30
2023-04-23T09:06:50.877Z,15.30
2023-04-23T09:08:24.356Z,15.40
2023-04-23T09:09:57.049Z,15.40
2023-04-23T09:11:32.349Z,15.50
2023-04-23T09:13:07.225Z,15.50
2023-04-23T09:14:44.441Z,15.60
2023-04-23T09:16:21.441Z,15.60
2023-04-23T09:17:54.724Z,15.70
2023-04-23T09:19:31.262Z,15.70
2023-04-23T09:21:06.568Z,15.80
2023-04-23T09:22:46.718Z,15.80
2023-04-23T09:24:24.141Z,15.80
2023-04-23T09:25:58.127Z,15.80
2023-04-23T09:27:31.283Z,15.90
2023-04-23T09:29:17.292Z,15.90
2023-04-23T09:30:50.617Z,15.90
2023-04-23T09:32:32.908Z,15.90
2023-04-23T09:34:08.283Z,16.00
2023-04-23T09:35:43.212Z,16.00
2023-04-23T09:37:19.975Z,16.00
2023-04-23T09:38:58.405Z,16.00
2023-04-23T09:40:31.769Z,16.00
2023-04-23T09:42:08.522Z,16.00
2023-04-23T09:43:42.974Z,16.00
2023-04-23T09:45:18.187Z,16.00
2023-04-23T09:46:51.933Z,16.00
2023-04-23T09:48:25.817Z,16.00
2023-04-23T09:50:00.352Z,16.10
2023-04-23T09:51:33.797Z,16.10
2023-04-23T09:53:08.838Z,16.10
2023-04-23T09:54:43.307Z,16.20
2023-04-23T09:56:16.818Z,16.20
2023-04-23T09:57:50.116Z,16.20
2023-04-23T09:59:39.945Z,16.20
2023-04-23T10:01:30.444Z,16.30
2023-04-23T10:03:04.318Z,16.30
2023-04-23T10:04:39.450Z,16.40
2023-04-23T10:06:25.947Z,16.40
2023-04-23T10:08:12.075Z,16.40
2023-04-23T10:09:46.291Z,16.50
2023-04-23T10:11:21.099Z,16.50
2023-04-23T10:12:56.493Z,16.60
2023-04-23T10:14:30.651Z,16.60
2023-04-23T10:16:20.612Z,16.70
2023-04-23T10:17:59.082Z,16.70
2023-04-23T10:19:33.896Z,16.80
2023-04-23T10:21:08.129Z,16.90
2023-04-23T10:22:45.737Z,16.90
2023-04-23T10:24:20.693Z,16.90
2023-04-23T10:25:56.381Z,16.90
2023-04-23T10:27:44.155Z,16.90
2023-04-23T10:29:29.745Z,16.90
2023-04-23T10:31:05.490Z,17.00
2023-04-23T10:32:39.455Z,17.00
2023-04-23T10:34:14.396Z,17.00
2023-04-23T10:35:48.776Z,17.00
2023-04-23T10:37:23.230Z,17.10
2023-04-23T10:39:00.661Z,17.10
2023-04-23T10:40:38.992Z,17.10
2023-04-23T10:42:13.649Z,17.10
2023-04-23T10:43:46.733Z,17.10
2023-04-23T10:45:25.190Z,17.10
2023-04-23T10:47:01.607Z,17.10
2023-04-23T10:48:52.864Z,17.10
2023-04-23T10:50:29.607Z,17.10
2023-04-23T10:53:43.657Z,17.20
2023-04-23T10:55:20.532Z,17.20
2023-04-23T10:57:03.129Z,17.20
2023-04-23T10:58:52.322Z,17.20
2023-04-23T11:00:26.304Z,17.20
2023-04-23T11:02:08.856Z,17.20
2023-04-23T11:03:44.581Z,17.20
2023-04-23T11:05:18.593Z,17.20
2023-04-23T11:07:06.722Z,17.20
2023-04-23T11:08:52.449Z,17.20
2023-04-23T11:10:26.573Z,17.10
2023-04-23T11:12:00.220Z,17.10
2023-04-23T11:13:33.420Z,17.10
2023-04-23T11:15:14.707Z,17.10
2023-04-23T11:16:50.389Z,17.10
2023-04-23T11:18:25.215Z,17.00
2023-04-23T11:20:15.487Z,17.00
2023-04-23T11:22:05.979Z,17.00
2023-04-23T11:23:39.277Z,17.00
2023-04-23T11:25:14.818Z,17.00
2023-04-23T11:26:52.411Z,17.10
2023-04-23T11:28:25.582Z,17.10
2023-04-23T11:30:00.075Z,17.10
2023-04-23T11:31:34.079Z,17.10
2023-04-23T11:33:07.926Z,17.10
2023-04-23T11:34:43.715Z,17.20
2023-04-23T11:36:17.116Z,17.20
2023-04-23T11:37:51.883Z,17.20
2023-04-23T11:39:24.531Z,17.20
2023-04-23T11:40:58.073Z,17.20
2023-04-23T11:42:31.724Z,17.30
2023-04-23T11:44:06.536Z,17.30
2023-04-23T11:45:39.945Z,17.30
2023-04-23T11:47:16.197Z,17.30
2023-04-23T11:48:50.458Z,17.30
2023-04-23T11:50:27.031Z,17.30
2023-04-23T11:52:02.589Z,17.30
2023-04-23T11:53:37.295Z,17.30
2023-04-23T11:55:11.145Z,17.30
2023-04-23T11:56:44.756Z,17.20
2023-04-23T11:58:19.406Z,17.20
2023-04-23T11:59:55.020Z,17.20
2023-04-23T12:01:27.232Z,17.20
2023-04-23T12:03:02.656Z,17.20
2023-04-23T12:04:36.952Z,17.20
2023-04-23T12:06:11.770Z,17.20
2023-04-23T12:07:48.954Z,17.20
2023-04-23T12:09:26.171Z,17.20
2023-04-23T12:11:03.390Z,17.20
2023-04-23T12:12:36.706Z,17.20
2023-04-23T12:14:11.821Z,17.20
2023-04-23T12:15:50.348Z,17.20
2023-04-23T12:17:23.550Z,17.10
2023-04-23T12:18:56.706Z,17.10
2023-04-23T12:20:32.172Z,17.10
2023-04-23T12:22:08.111Z,17.10
2023-04-23T12:23:44.696Z,17.10
2023-04-23T12:25:24.180Z,17.10
2023-04-23T12:27:00.890Z,17.10
2023-04-23T12:28:34.243Z,17.10
2023-04-23T12:30:09.448Z,17.10
2023-04-23T12:31:45.209Z,17.20
2023-04-23T12:33:19.405Z,17.20
2023-04-23T12:34:54.304Z,17.20
2023-04-23T12:36:30.081Z,17.30
2023-04-23T12:38:05.769Z,17.30
2023-04-23T12:39:38.902Z,17.40
2023-04-23T12:41:13.462Z,17.40
2023-04-23T12:42:46.950Z,17.50
2023-04-23T12:44:19.804Z,17.60
2023-04-23T12:45:53.737Z,17.60
2023-04-23T12:47:27.023Z,17.70
2023-04-23T12:49:00.754Z,17.80
2023-04-23T12:50:49.706Z,17.90
2023-04-23T12:52:23.279Z,18.00
2023-04-23T12:53:56.686Z,18.10
2023-04-23T12:55:29.838Z,18.10
2023-04-23T12:57:06.652Z,18.20
2023-04-23T12:58:40.081Z,18.30
2023-04-23T13:00:14.627Z,18.40
2023-04-23T13:01:47.879Z,18.50
2023-04-23T13:03:25.663Z,18.50
2023-04-23T13:05:01.269Z,18.70
2023-04-23T13:06:35.013Z,18.70
2023-04-23T13:08:08.346Z,18.80
2023-04-23T13:09:41.733Z,18.80
2023-04-23T13:11:15.058Z,18.90
2023-04-23T13:12:49.656Z,19.00
2023-04-23T13:14:22.775Z,19.00
2023-04-23T13:15:56.051Z,19.00
2023-04-23T13:17:29.567Z,19.10
2023-04-23T13:19:03.136Z,19.10
2023-04-23T13:20:36.528Z,19.00
2023-04-23T13:22:09.686Z,19.10
2023-04-23T13:23:41.994Z,19.10
2023-04-23T13:25:15.328Z,19.00
2023-04-23T13:26:48.573Z,19.00
2023-04-23T13:28:23.214Z,19.00
2023-04-23T13:29:56.781Z,19.00
2023-04-23T13:31:31.203Z,19.00
2023-04-23T13:33:05.053Z,19.00
2023-04-23T13:34:38.499Z,19.00
2023-04-23T13:36:15.411Z,19.00
2023-04-23T13:37:48.986Z,19.00
2023-04-23T13:39:23.601Z,19.10
2023-04-23T13:40:56.961Z,19.10
2023-04-23T13:42:30.299Z,19.10
2023-04-23T13:44:05.311Z,19.20
2023-04-23T13:45:38.618Z,19.20
2023-04-23T13:47:12.009Z,19.20
2023-04-23T13:48:45.505Z,19.20
2023-04-23T13:50:19.030Z,19.20
2023-04-23T13:51:54.020Z,19.30
2023-04-23T13:53:28.667Z,19.30
2023-04-23T13:55:04.015Z,19.30
2023-04-23T13:56:37.567Z,19.40
2023-04-23T13:58:12.422Z,19.40
2023-04-23T13:59:47.186Z,19.40
2023-04-23T14:01:20.821Z,19.40
2023-04-23T14:02:54.143Z,19.40
2023-04-23T14:04:27.798Z,19.40
2023-04-23T14:06:02.565Z,19.40
2023-04-23T14:07:35.944Z,19.40
2023-04-23T14:09:09.233Z,19.40
2023-04-23T14:10:43.781Z,19.50
2023-04-23T14:12:16.381Z,19.50
2023-04-23T14:13:49.812Z,19.50
2023-04-23T14:15:24.822Z,19.50
2023-04-23T14:16:58.068Z,19.50
2023-04-23T14:18:33.004Z,19.50
2023-04-23T14:20:08.080Z,19.60
2023-04-23T14:21:41.691Z,19.60
2023-04-23T14:23:52.430Z,19.60
2023-04-23T14:25:31.607Z,19.60
2023-04-23T14:27:05.928Z,19.60
2023-04-23T14:28:46.041Z,19.60
2023-04-23T14:30:24.831Z,19.60
2023-04-23T14:31:59.701Z,19.60
2023-04-23T14:33:33.497Z,19.60
2023-04-23T14:35:07.658Z,19.50
2023-04-23T14:36:41.206Z,19.50
2023-04-23T14:38:14.857Z,19.50
2023-04-23T14:39:48.455Z,19.50
2023-04-23T14:41:24.952Z,19.40
2023-04-23T14:43:08.089Z,19.40
2023-04-23T14:44:48.471Z,19.40
2023-04-23T14:46:21.838Z,19.40
2023-04-23T14:47:56.460Z,19.30
2023-04-23T14:49:29.716Z,19.30
2023-04-23T14:51:03.056Z,19.20
2023-04-23T14:52:36.401Z,19.20
2023-04-23T14:54:10.212Z,19.20
2023-04-23T14:55:43.630Z,19.20
2023-04-23T14:57:17.168Z,19.10
2023-04-23T14:58:50.896Z,19.10
2023-04-23T15:00:24.538Z,19.10
2023-04-23T15:02:00.350Z,19.00
2023-04-23T15:03:35.398Z,19.00
2023-04-23T15:05:10.099Z,18.90
2023-04-23T15:06:43.453Z,18.90
2023-04-23T15:08:17.060Z,18.80
2023-04-23T15:09:50.565Z,18.80
2023-04-23T15:11:24.220Z,18.70
2023-04-23T15:13:07.704Z,18.70
2023-04-23T15:14:44.660Z,18.70
2023-04-23T15:16:46.840Z,18.60
2023-04-23T15:18:22.261Z,18.60
2023-04-23T15:20:00.207Z,18.50
2023-04-23T15:21:34.068Z,18.50
2023-04-23T15:23:07.612Z,18.50
2023-04-23T15:24:41.878Z,18.40
2023-04-23T15:26:15.977Z,18.30
2023-04-23T15:27:56.705Z,18.30
2023-04-23T15:29:30.516Z,18.20
2023-04-23T15:31:03.839Z,18.20
2023-04-23T15:32:37.128Z,18.10
2023-04-23T15:34:12.009Z,18.00
2023-04-23T15:35:46.996Z,18.00
2023-04-23T15:37:21.053Z,17.90
2023-04-23T15:38:54.391Z,17.90
2023-04-23T15:40:30.100Z,17.80
2023-04-23T15:42:04.420Z,17.80
2023-04-23T15:43:37.792Z,17.80
2023-04-23T15:45:12.475Z,17.70
2023-04-23T15:46:46.135Z,17.70
2023-04-23T15:48:19.389Z,17.70
2023-04-23T15:49:52.602Z,17.60
2023-04-23T15:51:27.484Z,17.50
2023-04-23T15:53:01.515Z,17.50
2023-04-23T15:54:35.061Z,17.40
2023-04-23T15:56:08.416Z,17.40
2023-04-23T15:57:41.652Z,17.40
2023-04-23T15:59:14.974Z,17.40
2023-04-23T16:00:48.542Z,17.30
2023-04-23T16:02:22.078Z,17.30
2023-04-23T16:04:09.429Z,17.30
2023-04-23T16:05:44.706Z,17.30
2023-04-23T16:07:19.538Z,17.20
2023-04-23T16:08:52.881Z,17.20
2023-04-23T16:10:27.769Z,17.10
2023-04-23T16:12:01.101Z,17.10
2023-04-23T16:13:34.648Z,17.10
2023-04-23T16:16:43.126Z,17.00
2023-04-23T16:18:16.550Z,16.90
2023-04-23T16:19:50.133Z,17.00
2023-04-23T16:21:23.826Z,16.90
2023-04-23T16:22:58.459Z,16.90
2023-04-23T16:24:31.660Z,16.90
2023-04-23T16:26:08.556Z,16.90
2023-04-23T16:27:42.240Z,16.80
2023-04-23T16:29:22.276Z,16.80
2023-04-23T16:30:56.544Z,16.80
2023-04-23T16:32:29.933Z,16.80
2023-04-23T16:34:03.337Z,16.80
2023-04-23T16:35:37.102Z,16.70
2023-04-23T16:37:12.812Z,16.70
2023-04-23T16:38:49.458Z,16.70
2023-04-23T16:40:23.062Z,16.70
2023-04-23T16:41:56.337Z,16.60
2023-04-23T16:43:29.607Z,16.60
2023-04-23T16:45:02.964Z,16.50
2023-04-23T16:46:36.394Z,16.50
2023-04-23T16:48:13.072Z,16.50
2023-04-23T16:49:46.559Z,16.50
2023-04-23T16:51:18.861Z,16.40
2023-04-23T16:52:52.182Z,16.30
2023-04-23T16:54:26.903Z,16.30
2023-04-23T16:56:00.545Z,16.20
2023-04-23T16:57:34.814Z,16.20
2023-04-23T16:59:08.145Z,16.20
2023-04-23T17:00:41.379Z,16.10
2023-04-23T17:02:14.994Z,16.10
2023-04-23T17:03:48.421Z,16.00
2023-04-23T17:05:26.373Z,16.00
2023-04-23T17:06:59.701Z,15.90
2023-04-23T17:08:33.187Z,15.80
2023-04-23T17:10:09.635Z,15.80
2023-04-23T17:11:43.063Z,15.70
2023-04-23T17:13:16.347Z,15.70
2023-04-23T17:14:49.689Z,15.60
2023-04-23T17:16:25.347Z,15.50
2023-04-23T17:17:58.643Z,15.50
2023-04-23T17:19:32.144Z,15.50
2023-04-23T17:21:05.552Z,15.40
2023-04-23T17:22:38.912Z,15.40
2023-04-23T17:24:12.268Z,15.30
2023-04-23T17:25:47.113Z,15.20
2023-04-23T17:27:20.420Z,15.20
2023-04-23T17:28:53.719Z,15.20
2023-04-23T17:30:26.386Z,15.10
2023-04-23T17:31:59.980Z,15.10
2023-04-23T17:33:33.652Z,15.00
2023-04-23T17:35:10.908Z,15.00
2023-04-23T17:36:44.536Z,14.90
2023-04-23T17:38:20.374Z,14.90
2023-04-23T17:39:54.877Z,14.80
2023-04-23T17:41:29.611Z,14.80
2023-04-23T17:43:02.736Z,14.80
2023-04-23T17:44:36.800Z,14.70
2023-04-23T17:46:10.192Z,14.70
2023-04-23T17:47:43.484Z,14.60
2023-04-23T17:49:17.069Z,14.60
2023-04-23T17:50:51.253Z,14.60
2023-04-23T17:52:24.579Z,14.50
2023-04-23T17:53:59.323Z,14.50
2023-04-23T17:55:33.856Z,14.50
2023-04-23T17:57:09.764Z,14.40
2023-04-23T17:58:43.156Z,14.40
2023-04-23T18:00:18.174Z,14.40
2023-04-23T18:01:51.600Z,14.40
2023-04-23T18:03:26.544Z,14.30
2023-04-23T18:05:00.178Z,14.30
2023-04-23T18:06:33.461Z,14.30
2023-04-23T18:08:08.140Z,14.20
2023-04-23T18:09:41.510Z,14.20
2023-04-23T18:11:14.860Z,14.20
2023-04-23T18:12:49.677Z,14.20
2023-04-23T18:14:23.304Z,14.20
2023-04-23T18:15:56.991Z,14.10
2023-04-23T18:17:30.722Z,14.10
2023-04-23T18:19:04.114Z,14.10
2023-04-23T18:20:38.893Z,14.10
2023-04-23T18:22:12.388Z,14.10
2023-04-23T18:23:46.117Z,14.10
2023-04-23T18:25:19.367Z,14.00
2023-04-23T18:26:54.564Z,14.00
2023-04-23T18:28:29.267Z,14.00
2023-04-23T18:30:02.555Z,13.90
2023-04-23T18:31:36.548Z,13.90
2023-04-23T18:33:32.711Z,13.90
2023-04-23T18:35:08.016Z,13.90
2023-04-23T18:36:44.900Z,13.90
2023-04-23T18:38:29.986Z,13.80
2023-04-23T18:40:04.438Z,13.80
2023-04-23T18:41:38.278Z,13.80
2023-04-23T18:43:11.781Z,13.80
2023-04-23T18:44:46.675Z,13.70
2023-04-23T18:46:20.177Z,13.70
2023-04-23T18:48:04.337Z,13.60
2023-04-23T18:49:47.628Z,13.60
2023-04-23T18:51:27.448Z,13.60
2023-04-23T18:53:00.757Z,13.60
2023-04-23T18:54:34.311Z,13.50
2023-04-23T18:56:15.219Z,13.50
2023-04-23T18:57:49.117Z,13.50
2023-04-23T18:59:22.670Z,13.50
2023-04-23T19:00:57.670Z,13.40
2023-04-23T19:02:35.568Z,13.40
2023-04-23T19:04:10.024Z,13.30
2023-04-23T19:05:43.635Z,13.30
2023-04-23T19:07:17.094Z,13.30
2023-04-23T19:08:50.730Z,13.30
2023-04-23T19:10:24.524Z,13.20
2023-04-23T19:11:58.111Z,13.20
2023-04-23T19:13:31.742Z,13.20
2023-04-23T19:15:06.061Z,13.20
2023-04-23T19:16:40.736Z,13.10
2023-04-23T19:18:13.920Z,13.10
2023-04-23T19:19:47.321Z,13.10
2023-04-23T19:21:20.811Z,13.10
2023-04-23T19:22:53.153Z,13.00
2023-04-23T19:24:26.658Z,13.00
2023-04-23T19:26:01.655Z,13.00
2023-04-23T19:27:38.491Z,12.90
2023-04-23T19:29:12.061Z,12.90
2023-04-23T19:30:45.568Z,12.90
2023-04-23T19:32:20.342Z,12.90
2023-04-23T19:33:53.485Z,12.80
2023-04-23T19:35:26.927Z,12.80
2023-04-23T19:37:00.224Z,12.80
2023-04-23T19:38:33.468Z,12.70
2023-04-23T19:40:09.188Z,12.70
2023-04-23T19:41:42.455Z,12.70
2023-04-23T19:43:16.111Z,12.70
2023-04-23T19:44:49.632Z,12.60
2023-04-23T19:46:23.007Z,12.70
2023-04-23T19:47:57.722Z,12.60
2023-04-23T19:49:33.197Z,12.50
2023-04-23T19:51:08.894Z,12.60
2023-04-23T19:52:42.261Z,12.50
2023-04-23T19:54:15.720Z,12.50
2023-04-23T19:55:49.276Z,12.50
2023-04-23T19:57:22.719Z,12.50
2023-04-23T19:58:56.244Z,12.50
2023-04-23T20:00:31.131Z,12.50
2023-04-23T20:02:04.551Z,12.50
2023-04-23T20:03:39.928Z,12.40
2023-04-23T20:05:13.409Z,12.40
2023-04-23T20:06:46.685Z,12.40
2023-04-23T20:08:29.028Z,12.50
2023-04-23T20:10:02.416Z,12.40
2023-04-23T20:11:37.063Z,12.40
2023-04-23T20:13:25.687Z,12.40
2023-04-23T20:14:58.987Z,12.40
2023-04-23T20:16:32.296Z,12.40
2023-04-23T20:18:06.876Z,12.40
2023-04-23T20:19:41.821Z,12.30
2023-04-23T20:21:15.960Z,12.40
2023-04-23T20:22:49.713Z,12.30
2023-04-23T20:24:23.273Z,12.30
2023-04-23T20:25:56.884Z,12.30
2023-04-23T20:27:31.587Z,12.30
2023-04-23T20:29:05.408Z,12.30
2023-04-23T20:30:38.989Z,12.30
2023-04-23T20:32:12.172Z,12.30
2023-04-23T20:33:45.609Z,12.20